Vichy/Rolla, Missouri
Current Conditions -  °F | °C
As of 5:53 PM on Friday 21 Nov 2014 (Local Time) from KVIH Reporting Station
Overcast Overcast  
Wind Chill: 38°   Ceiling: 2400
Heat Index: 44°   Visibility: 10mi
Dew Point: 30°   Wind: 12mph
Humidity: 58%   Direction: 140°SE
Pressure: 30.18"   Gusts: NA
Location:  38.12°N, 91.76°W
Report Text: KVIH 212353Z AUTO 14010KT 10SM SCT017 BKN024 OVC029 07/M01 A3018 RMK AO2 SLP229 T00671011 10078 20056 58007
Loading
Personal Weather Stations






























Interactive Weather Map New forecast layout! Learn more

10-Day Weather Forecast

Advertisements
Track Severe Weather on mobile